logo
Search for airport 
image banner adimage banner adimage banner ad
image banner ad

MMCB - Cuernavaca Aeropuerto Internacional Gral. Mariano Matamoros

Located in Cuernavaca, Mexico

ICAO - MMCB, IATA - CVJ

Data provided by Airmate  

General information

Coordinates: N18°50'4" W99°15'42"
Elevation is 4295 feet MSL.
 
Rated:
View ratings:
[VIEW]
View others Airports in Moreloa

Operational data

Special qualification required
Current time UTC:
Current local time:
Weather
METAR: MMCB 261251Z 31003KT 6SM SKC 18/13 A3015 RMK CI HZY RTS
TAF: TAF MMCB 260446Z 2606/2706 04005KT P6SM SKC FM261600 18005KT P6SM SCT020 BKN250 FM270300 00000KT P6SM SKC
View NOTAMs / SUP AIP / TFR affecting this airport [VIEW]
Communications frequencies: [VIEW]

Runways:

RWY identifierQFULength (ft)Width (ft)SurfaceLDA (ft)
0332°9180148UNK
21212°9180148UNK

Airport contact information

Address: Cuernavaca Mexico

Satellite view of MMCB